createdAt,value
2023-01-07T00:01:15.464Z,77.83
2023-01-07T00:03:44.200Z,77.35
2023-01-07T00:06:14.903Z,77.10
2023-01-07T00:08:44.871Z,77.38
2023-01-07T00:11:16.309Z,77.47
2023-01-07T00:13:46.005Z,78.07
2023-01-07T00:16:17.202Z,77.72
2023-01-07T00:18:45.517Z,77.90
2023-01-07T00:21:15.953Z,77.89
2023-01-07T00:23:45.009Z,77.93
2023-01-07T00:26:14.729Z,78.31
2023-01-07T00:28:46.253Z,78.18
2023-01-07T00:31:16.347Z,78.50
2023-01-07T00:33:51.799Z,78.40
2023-01-07T00:36:20.154Z,78.23
2023-01-07T00:38:48.359Z,78.43
2023-01-07T00:41:16.027Z,78.74
2023-01-07T00:43:45.028Z,78.67
2023-01-07T00:46:14.649Z,78.65
2023-01-07T00:48:42.673Z,78.44
2023-01-07T00:51:11.896Z,78.01
2023-01-07T00:53:39.914Z,77.95
2023-01-07T00:56:08.007Z,78.32
2023-01-07T00:58:35.706Z,78.10
2023-01-07T01:01:05.337Z,77.42
2023-01-07T01:03:34.629Z,77.39
2023-01-07T01:06:03.759Z,76.62
2023-01-07T01:08:31.586Z,76.95
2023-01-07T01:11:04.901Z,76.80
2023-01-07T01:13:32.770Z,76.47
2023-01-07T01:16:00.780Z,76.32
2023-01-07T01:18:29.983Z,75.78
2023-01-07T01:20:57.631Z,76.01
2023-01-07T01:23:25.301Z,76.08
2023-01-07T01:25:53.057Z,75.63
2023-01-07T01:28:20.697Z,75.59
2023-01-07T01:30:55.794Z,76.00
2023-01-07T01:33:23.420Z,76.18
2023-01-07T01:35:52.440Z,76.31
2023-01-07T01:38:20.163Z,76.52
2023-01-07T01:40:47.865Z,77.04
2023-01-07T01:43:33.721Z,76.42
2023-01-07T01:46:04.413Z,76.26
2023-01-07T01:48:36.199Z,75.99
2023-01-07T01:51:05.945Z,75.98
2023-01-07T01:53:36.585Z,76.05
2023-01-07T01:56:08.437Z,76.33
2023-01-07T01:58:39.522Z,76.29
2023-01-07T02:01:07.423Z,76.64
2023-01-07T02:03:37.560Z,76.55
2023-01-07T02:06:10.968Z,76.48
2023-01-07T02:08:38.858Z,76.45
2023-01-07T02:11:19.299Z,76.39
2023-01-07T02:14:01.328Z,76.11
2023-01-07T02:16:36.655Z,76.67
2023-01-07T02:19:29.374Z,76.97
2023-01-07T02:22:06.690Z,76.97
2023-01-07T02:25:02.505Z,77.16
2023-01-07T02:28:02.434Z,77.15
2023-01-07T02:30:48.895Z,77.10
2023-01-07T02:33:27.583Z,77.14
2023-01-07T02:36:33.974Z,76.92
2023-01-07T02:39:14.443Z,77.04
2023-01-07T02:41:49.820Z,77.36
2023-01-07T02:44:26.780Z,77.46
2023-01-07T02:47:02.213Z,77.50
2023-01-07T02:49:31.376Z,77.67
2023-01-07T02:52:17.555Z,77.58
2023-01-07T02:54:46.924Z,77.78
2023-01-07T02:57:43.157Z,77.30
2023-01-07T03:00:19.382Z,77.98
2023-01-07T03:02:59.483Z,78.59
2023-01-07T03:05:42.690Z,78.73
2023-01-07T03:08:26.913Z,78.05
2023-01-07T03:11:00.628Z,77.92
2023-01-07T03:13:36.089Z,77.89
2023-01-07T03:16:06.763Z,78.18
2023-01-07T03:18:38.975Z,77.94
2023-01-07T03:21:13.663Z,77.95
2023-01-07T03:23:45.402Z,78.24
2023-01-07T03:26:15.144Z,78.40
2023-01-07T03:28:43.894Z,78.15
2023-01-07T03:31:15.356Z,77.78
2023-01-07T03:33:50.395Z,77.32
2023-01-07T03:36:24.061Z,77.71
2023-01-07T03:38:53.424Z,77.76
2023-01-07T03:41:35.091Z,77.61
2023-01-07T03:44:02.824Z,77.91
2023-01-07T03:46:30.567Z,78.17
2023-01-07T03:48:58.283Z,78.24
2023-01-07T03:51:27.284Z,78.44
2023-01-07T03:53:54.991Z,78.67
2023-01-07T03:56:22.858Z,78.62
2023-01-07T03:58:50.544Z,78.49
2023-01-07T04:01:18.338Z,78.42
2023-01-07T04:03:46.121Z,78.01
2023-01-07T04:06:13.756Z,78.52
2023-01-07T04:08:42.762Z,78.29
2023-01-07T04:11:10.461Z,78.64
2023-01-07T04:13:38.110Z,78.43
2023-01-07T04:16:06.468Z,79.01
2023-01-07T04:18:34.237Z,79.15
2023-01-07T04:21:01.960Z,78.79
2023-01-07T04:23:29.949Z,78.50
2023-01-07T04:25:58.980Z,78.47
2023-01-07T04:28:26.986Z,79.03
2023-01-07T04:30:54.850Z,78.86
2023-01-07T04:33:22.714Z,78.21
2023-01-07T04:35:50.363Z,78.54
2023-01-07T04:38:18.257Z,78.54
2023-01-07T04:40:46.115Z,78.55
2023-01-07T04:43:15.187Z,78.55
2023-01-07T04:45:43.075Z,78.89
2023-01-07T04:48:10.754Z,78.42
2023-01-07T04:50:38.450Z,78.68
2023-01-07T04:53:06.192Z,79.22
2023-01-07T04:55:33.969Z,78.80
2023-01-07T04:58:01.756Z,79.52
2023-01-07T05:00:30.750Z,79.41
2023-01-07T05:02:58.585Z,79.21
2023-01-07T05:05:26.249Z,79.54
2023-01-07T05:07:53.969Z,79.56
2023-01-07T05:10:21.750Z,80.14
2023-01-07T05:12:49.459Z,80.49
2023-01-07T05:15:17.145Z,79.70
2023-01-07T05:17:46.194Z,79.43
2023-01-07T05:20:15.369Z,79.78
2023-01-07T05:22:43.043Z,79.66
2023-01-07T05:25:11.243Z,79.12
2023-01-07T05:27:38.890Z,79.28
2023-01-07T05:30:07.680Z,79.60
2023-01-07T05:32:35.383Z,79.56
2023-01-07T05:35:04.855Z,79.91
2023-01-07T05:37:32.514Z,79.41
2023-01-07T05:40:00.200Z,79.61
2023-01-07T05:42:27.897Z,79.65
2023-01-07T05:44:55.616Z,80.15
2023-01-07T05:47:23.297Z,79.51
2023-01-07T05:49:51.037Z,79.34
2023-01-07T05:52:20.077Z,78.47
2023-01-07T05:54:47.767Z,78.76
2023-01-07T05:57:15.442Z,78.64
2023-01-07T05:59:43.132Z,79.39
2023-01-07T06:02:10.848Z,79.18
2023-01-07T06:04:38.494Z,78.91
2023-01-07T06:07:06.217Z,78.89
2023-01-07T06:09:35.452Z,78.83
2023-01-07T06:12:03.063Z,79.01
2023-01-07T06:14:30.688Z,79.37
2023-01-07T06:16:58.432Z,79.66
2023-01-07T06:19:26.479Z,80.08
2023-01-07T06:21:54.209Z,79.92
2023-01-07T06:24:21.953Z,79.79
2023-01-07T06:26:51.014Z,79.99
2023-01-07T06:29:18.757Z,80.02
2023-01-07T06:31:46.441Z,79.43
2023-01-07T06:34:14.107Z,79.24
2023-01-07T06:36:41.827Z,79.54
2023-01-07T06:39:09.843Z,79.61
2023-01-07T06:41:37.480Z,79.78
2023-01-07T06:44:06.832Z,79.65
2023-01-07T06:46:34.588Z,79.15
2023-01-07T06:49:02.625Z,78.85
2023-01-07T06:51:30.288Z,78.95
2023-01-07T06:53:58.498Z,79.45
2023-01-07T06:56:26.215Z,79.24
2023-01-07T06:58:54.026Z,79.22
2023-01-07T07:01:23.307Z,78.66
2023-01-07T07:03:51.123Z,79.16
2023-01-07T07:06:18.810Z,80.02
2023-01-07T07:08:46.492Z,80.48
2023-01-07T07:11:14.149Z,80.08
2023-01-07T07:13:41.822Z,80.30
2023-01-07T07:16:09.774Z,80.18
2023-01-07T07:18:38.860Z,79.86
2023-01-07T07:21:06.905Z,79.39
2023-01-07T07:23:34.625Z,79.95
2023-01-07T07:26:02.293Z,80.36
2023-01-07T07:28:29.973Z,80.71
2023-01-07T07:30:58.190Z,80.26
2023-01-07T07:33:25.907Z,80.40
2023-01-07T07:35:55.964Z,79.98
2023-01-07T07:38:23.695Z,80.38
2023-01-07T07:40:51.419Z,80.89
2023-01-07T07:43:19.175Z,81.36
2023-01-07T07:45:47.078Z,81.15
2023-01-07T07:48:16.312Z,81.37
2023-01-07T07:50:44.063Z,80.75
2023-01-07T07:53:14.035Z,81.07
2023-01-07T07:55:41.692Z,80.99
2023-01-07T07:58:09.424Z,81.04
2023-01-07T08:00:37.229Z,80.89
2023-01-07T08:03:05.634Z,81.23
2023-01-07T08:05:33.660Z,81.33
2023-01-07T08:08:01.394Z,81.20
2023-01-07T08:10:30.684Z,80.37
2023-01-07T08:12:58.315Z,80.02
2023-01-07T08:15:26.273Z,80.40
2023-01-07T08:18:00.641Z,80.44
2023-01-07T08:20:28.838Z,80.53
2023-01-07T08:22:59.507Z,79.64
2023-01-07T08:25:27.302Z,79.81
2023-01-07T08:27:57.879Z,79.75
2023-01-07T08:30:26.420Z,79.53
2023-01-07T08:32:54.262Z,79.64
2023-01-07T08:35:22.440Z,79.39
2023-01-07T08:37:50.695Z,79.17
2023-01-07T08:40:18.423Z,78.58
2023-01-07T08:42:46.128Z,78.93
2023-01-07T08:45:15.466Z,78.58
2023-01-07T08:47:47.485Z,78.68
2023-01-07T08:50:15.252Z,78.74
2023-01-07T08:52:42.861Z,78.59
2023-01-07T08:55:10.760Z,77.95
2023-01-07T08:57:38.546Z,77.83
2023-01-07T09:00:07.707Z,77.39
2023-01-07T09:02:36.776Z,77.79
2023-01-07T09:05:05.951Z,77.96
2023-01-07T09:07:33.633Z,76.90
2023-01-07T09:10:01.399Z,76.59
2023-01-07T09:12:29.065Z,76.23
2023-01-07T09:14:56.779Z,75.73
2023-01-07T09:17:24.552Z,75.51
2023-01-07T09:19:53.661Z,75.98
2023-01-07T09:22:21.425Z,75.88
2023-01-07T09:24:49.186Z,75.72
2023-01-07T09:27:17.092Z,75.32
2023-01-07T09:29:44.817Z,75.49
2023-01-07T09:32:12.723Z,74.67
2023-01-07T09:34:40.602Z,73.11
2023-01-07T09:37:09.620Z,72.49
2023-01-07T09:39:37.258Z,72.23
2023-01-07T09:42:12.665Z,70.51
2023-01-07T09:44:55.014Z,69.60
2023-01-07T09:47:27.573Z,68.67
2023-01-07T09:49:59.277Z,67.81
2023-01-07T09:52:33.085Z,67.34
2023-01-07T09:55:06.752Z,66.71
2023-01-07T09:57:34.548Z,66.45
2023-01-07T10:00:03.584Z,66.46
2023-01-07T10:02:41.972Z,65.73
2023-01-07T10:05:22.329Z,65.97
2023-01-07T10:08:29.901Z,66.04
2023-01-07T10:10:54.004Z,66.03
2023-01-07T10:13:44.037Z,65.61
2023-01-07T10:16:21.355Z,65.55
2023-01-07T10:18:59.919Z,65.31
2023-01-07T10:21:34.575Z,65.43
2023-01-07T10:24:10.587Z,65.37
2023-01-07T10:26:42.300Z,65.55
2023-01-07T10:29:15.514Z,65.88
2023-01-07T10:31:44.729Z,66.52
2023-01-07T10:34:16.738Z,67.32
2023-01-07T10:36:58.839Z,67.22
2023-01-07T10:39:36.248Z,66.26
2023-01-07T10:42:10.383Z,66.28
2023-01-07T10:45:21.439Z,66.03
2023-01-07T10:48:00.638Z,65.43
2023-01-07T10:50:49.615Z,64.68
2023-01-07T10:53:29.095Z,64.64
2023-01-07T10:56:08.593Z,64.58
2023-01-07T10:58:40.652Z,64.45
2023-01-07T11:01:11.311Z,64.28
2023-01-07T11:03:40.176Z,64.59
2023-01-07T11:06:12.736Z,64.40
2023-01-07T11:08:42.778Z,64.58
2023-01-07T11:11:16.637Z,64.57
2023-01-07T11:13:51.323Z,64.72
2023-01-07T11:16:24.747Z,64.25
2023-01-07T11:18:58.508Z,64.40
2023-01-07T11:21:43.207Z,64.23
2023-01-07T11:24:32.688Z,64.82
2023-01-07T11:27:05.383Z,64.65
2023-01-07T11:29:38.897Z,64.54
2023-01-07T11:32:18.580Z,64.10
2023-01-07T11:34:52.634Z,64.94
2023-01-07T11:37:33.782Z,65.15
2023-01-07T11:40:03.199Z,65.84
2023-01-07T11:42:41.150Z,64.84
2023-01-07T11:45:14.821Z,64.86
2023-01-07T11:47:47.706Z,65.00
2023-01-07T11:50:27.452Z,64.93
2023-01-07T11:53:00.823Z,64.66
2023-01-07T11:55:29.279Z,64.66
2023-01-07T11:58:30.153Z,64.60
2023-01-07T12:01:03.332Z,64.51
2023-01-07T12:03:31.265Z,64.53
2023-01-07T12:06:01.854Z,64.69
2023-01-07T12:08:35.303Z,64.81
2023-01-07T12:11:08.895Z,64.55
2023-01-07T12:13:42.281Z,64.45
2023-01-07T12:16:11.587Z,64.55
2023-01-07T12:19:14.825Z,64.38
2023-01-07T12:21:58.525Z,64.62
2023-01-07T12:24:43.831Z,64.93
2023-01-07T12:27:22.669Z,64.77
2023-01-07T12:30:03.486Z,64.83
2023-01-07T12:32:45.837Z,65.09
2023-01-07T12:35:19.131Z,65.27
2023-01-07T12:37:52.931Z,65.50
2023-01-07T12:40:32.467Z,65.85
2023-01-07T12:43:11.441Z,65.50
2023-01-07T12:45:46.153Z,65.36
2023-01-07T12:48:22.458Z,65.41
2023-01-07T12:50:54.028Z,65.75
2023-01-07T12:53:30.221Z,65.42
2023-01-07T12:56:01.396Z,64.81
2023-01-07T12:58:40.916Z,64.53
2023-01-07T13:01:20.083Z,64.86
2023-01-07T13:03:55.846Z,64.59
2023-01-07T13:06:36.499Z,63.87
2023-01-07T13:09:13.325Z,63.24
2023-01-07T13:12:01.993Z,63.41
2023-01-07T13:14:34.289Z,63.37
2023-01-07T13:17:16.242Z,63.25
2023-01-07T13:19:44.046Z,63.54
2023-01-07T13:22:20.393Z,63.48
2023-01-07T13:25:00.954Z,63.29
2023-01-07T13:27:38.239Z,63.30
2023-01-07T13:30:20.391Z,63.22
2023-01-07T13:33:00.524Z,62.83
2023-01-07T13:35:44.188Z,62.24
2023-01-07T13:38:23.285Z,62.86
2023-01-07T13:41:04.863Z,63.41
2023-01-07T13:43:53.525Z,63.58
2023-01-07T13:46:26.050Z,63.74
2023-01-07T13:48:55.971Z,63.45
2023-01-07T13:51:30.079Z,63.83
2023-01-07T13:53:58.527Z,63.73
2023-01-07T13:56:43.944Z,63.89
2023-01-07T13:59:32.718Z,64.06
2023-01-07T14:02:20.068Z,64.16
2023-01-07T14:05:04.509Z,63.95
2023-01-07T14:07:32.685Z,63.96
2023-01-07T14:10:00.379Z,63.69
2023-01-07T14:13:06.220Z,63.71
2023-01-07T14:16:07.804Z,63.68
2023-01-07T14:19:05.132Z,64.15
2023-01-07T14:21:52.855Z,64.10
2023-01-07T14:24:34.758Z,64.31
2023-01-07T14:27:16.572Z,63.86
2023-01-07T14:29:47.434Z,64.63
2023-01-07T14:32:29.157Z,64.43
2023-01-07T14:35:03.450Z,64.65
2023-01-07T14:37:37.677Z,64.77
2023-01-07T14:40:49.764Z,64.64
2023-01-07T14:43:48.604Z,65.13
2023-01-07T14:46:45.710Z,65.41
2023-01-07T14:49:38.354Z,64.96
2023-01-07T14:52:15.103Z,64.89
2023-01-07T14:55:14.262Z,65.16
2023-01-07T14:57:56.163Z,64.92
2023-01-07T15:00:53.371Z,64.95
2023-01-07T15:03:50.941Z,65.19
2023-01-07T15:06:29.942Z,65.37
2023-01-07T15:09:22.086Z,65.30
2023-01-07T15:12:11.742Z,65.38
2023-01-07T15:15:03.752Z,65.62
2023-01-07T15:17:33.255Z,65.76
2023-01-07T15:20:05.352Z,65.88
2023-01-07T15:22:56.537Z,66.04
2023-01-07T15:25:41.848Z,66.41
2023-01-07T15:28:16.538Z,66.85
2023-01-07T15:30:55.955Z,67.22
2023-01-07T15:33:53.449Z,67.33
2023-01-07T15:36:21.613Z,67.96
2023-01-07T15:38:52.891Z,67.95
2023-01-07T15:41:27.768Z,68.13
2023-01-07T15:43:58.036Z,68.15
2023-01-07T15:46:27.379Z,68.72
2023-01-07T15:49:16.069Z,69.08
2023-01-07T15:51:45.501Z,69.09
2023-01-07T15:54:28.601Z,68.96
2023-01-07T15:57:00.447Z,69.28
2023-01-07T15:59:32.568Z,69.54
2023-01-07T16:02:06.941Z,69.86
2023-01-07T16:04:38.298Z,70.09
2023-01-07T16:07:06.036Z,71.19
2023-01-07T16:09:34.393Z,70.49
2023-01-07T16:12:02.163Z,70.08
2023-01-07T16:14:38.111Z,69.89
2023-01-07T16:17:14.228Z,69.60
2023-01-07T16:19:42.574Z,69.65
2023-01-07T16:22:16.188Z,69.82
2023-01-07T16:24:53.350Z,69.70
2023-01-07T16:27:24.951Z,69.69
2023-01-07T16:29:57.898Z,69.77
2023-01-07T16:32:26.699Z,69.52
2023-01-07T16:35:00.428Z,69.39
2023-01-07T16:37:29.361Z,69.69
2023-01-07T16:39:57.558Z,69.62
2023-01-07T16:42:27.511Z,69.50
2023-01-07T16:45:02.142Z,69.51
2023-01-07T16:47:31.410Z,69.63
2023-01-07T16:50:00.355Z,69.46
2023-01-07T16:52:33.011Z,69.54
2023-01-07T16:55:01.196Z,69.39
2023-01-07T16:57:38.886Z,69.50
2023-01-07T17:00:23.961Z,69.73
2023-01-07T17:02:57.346Z,69.74
2023-01-07T17:05:29.111Z,69.82
2023-01-07T17:07:59.260Z,69.93
2023-01-07T17:10:29.287Z,69.63
2023-01-07T17:12:59.568Z,69.74
2023-01-07T17:15:36.098Z,70.20
2023-01-07T17:18:29.056Z,70.14
2023-01-07T17:20:58.884Z,70.21
2023-01-07T17:23:34.122Z,69.91
2023-01-07T17:26:04.438Z,69.82
2023-01-07T17:28:34.200Z,69.61
2023-01-07T17:31:03.702Z,69.74
2023-01-07T17:33:31.420Z,69.52
2023-01-07T17:35:59.121Z,69.18
2023-01-07T17:38:26.826Z,69.49
2023-01-07T18:06:59.647Z,72.01
2023-01-07T18:09:27.314Z,70.07
2023-01-07T18:12:12.668Z,69.21
2023-01-07T18:14:40.321Z,69.45
2023-01-07T18:17:08.359Z,70.20
2023-01-07T18:19:36.147Z,70.26
2023-01-07T18:22:05.235Z,69.76
2023-01-07T18:24:33.023Z,69.75
2023-01-07T18:27:00.800Z,69.68
2023-01-07T18:29:28.488Z,69.62
2023-01-07T18:31:56.192Z,69.70
2023-01-07T18:34:24.023Z,69.54
2023-01-07T18:36:51.749Z,69.13
2023-01-07T18:39:21.155Z,68.79
2023-01-07T18:41:50.229Z,69.44
2023-01-07T18:44:19.868Z,69.32
2023-01-07T18:46:47.727Z,69.12
2023-01-07T18:49:15.931Z,68.39
2023-01-07T18:51:44.018Z,68.55
2023-01-07T18:54:11.782Z,68.60
2023-01-07T18:56:41.036Z,68.39
2023-01-07T18:59:08.869Z,68.25
2023-01-07T19:01:36.751Z,68.41
2023-01-07T19:04:06.816Z,68.32
2023-01-07T19:06:34.615Z,68.47
2023-01-07T19:09:02.428Z,68.43
2023-01-07T19:11:31.473Z,68.03
2023-01-07T19:14:00.595Z,68.04
2023-01-07T19:16:28.734Z,67.95
2023-01-07T19:18:56.567Z,67.99
2023-01-07T19:21:26.313Z,67.89
2023-01-07T19:23:54.140Z,67.68
2023-01-07T19:26:22.081Z,67.99
2023-01-07T19:28:49.804Z,67.50
2023-01-07T19:31:18.832Z,67.52
2023-01-07T19:33:46.575Z,67.25
2023-01-07T19:36:17.034Z,67.51
2023-01-07T19:38:47.310Z,67.57
2023-01-07T19:41:16.467Z,67.66
2023-01-07T19:43:45.819Z,67.35
2023-01-07T19:46:15.869Z,67.23
2023-01-07T19:48:48.047Z,67.38
2023-01-07T19:51:15.865Z,67.31
2023-01-07T19:53:43.695Z,67.22
2023-01-07T19:56:13.523Z,66.80
2023-01-07T19:58:41.885Z,66.68
2023-01-07T20:01:12.253Z,66.88
2023-01-07T20:03:40.319Z,67.12
2023-01-07T20:06:11.451Z,66.84
2023-01-07T20:08:40.089Z,67.12
2023-01-07T20:11:08.227Z,67.17
2023-01-07T20:13:38.114Z,67.45
2023-01-07T20:16:06.935Z,67.51
2023-01-07T20:18:40.685Z,67.66
2023-01-07T20:21:17.518Z,67.40
2023-01-07T20:23:45.856Z,67.67
2023-01-07T20:26:15.947Z,67.59
2023-01-07T20:28:44.520Z,67.50
2023-01-07T20:31:14.792Z,67.71
2023-01-07T20:33:45.301Z,68.01
2023-01-07T20:36:16.301Z,68.04
2023-01-07T20:38:45.149Z,68.42
2023-01-07T20:41:20.898Z,68.27
2023-01-07T20:43:52.169Z,68.30
2023-01-07T20:46:21.952Z,68.27
2023-01-07T20:48:49.988Z,68.37
2023-01-07T20:51:19.779Z,68.65
2023-01-07T20:53:48.384Z,68.71
2023-01-07T20:56:18.584Z,68.08
2023-01-07T20:58:46.756Z,68.42
2023-01-07T21:01:17.002Z,68.32
2023-01-07T21:03:45.635Z,68.36
2023-01-07T21:06:15.045Z,68.33
2023-01-07T21:08:44.652Z,68.37
2023-01-07T21:11:14.617Z,68.88
2023-01-07T21:13:43.079Z,69.17
2023-01-07T21:16:11.435Z,69.27
2023-01-07T21:18:39.438Z,69.19
2023-01-07T21:21:10.968Z,69.22
2023-01-07T21:23:39.149Z,68.92
2023-01-07T21:26:10.061Z,69.12
2023-01-07T21:28:37.844Z,69.37
2023-01-07T21:31:09.141Z,68.52
2023-01-07T21:33:37.811Z,68.49
2023-01-07T21:36:09.797Z,68.62
2023-01-07T21:38:37.641Z,68.71
2023-01-07T21:41:12.430Z,69.24
2023-01-07T21:43:40.413Z,69.30
2023-01-07T21:46:09.175Z,69.45
2023-01-07T21:48:38.958Z,69.20
2023-01-07T21:51:08.706Z,68.91
2023-01-07T21:53:37.281Z,69.10
2023-01-07T21:56:06.649Z,69.09
2023-01-07T21:58:35.940Z,69.32
2023-01-07T22:01:04.559Z,70.21
2023-01-07T22:03:32.897Z,69.97
2023-01-07T22:06:02.140Z,69.76
2023-01-07T22:08:30.212Z,69.99
2023-01-07T22:10:57.951Z,70.18
2023-01-07T22:13:25.669Z,70.02
2023-01-07T22:15:55.937Z,69.76
2023-01-07T22:18:23.768Z,70.11
2023-01-07T22:20:55.979Z,70.03
2023-01-07T22:23:24.181Z,70.12
2023-01-07T22:25:51.939Z,70.37
2023-01-07T22:28:23.014Z,70.72
2023-01-07T22:30:55.386Z,70.68
2023-01-07T22:33:23.545Z,70.62
2023-01-07T22:35:52.262Z,70.97
2023-01-07T22:38:23.874Z,71.69
2023-01-07T22:40:51.919Z,71.23
2023-01-07T22:43:23.900Z,71.04
2023-01-07T22:45:56.644Z,71.25
2023-01-07T22:48:27.317Z,71.41
2023-01-07T22:50:58.864Z,71.35
2023-01-07T22:53:26.593Z,70.98
2023-01-07T22:55:54.884Z,71.01
2023-01-07T22:58:22.931Z,71.20
2023-01-07T23:01:12.820Z,70.93
2023-01-07T23:03:41.537Z,70.51
2023-01-07T23:06:10.628Z,71.04
2023-01-07T23:08:38.417Z,71.04
2023-01-07T23:11:07.157Z,71.00
2023-01-07T23:13:35.219Z,70.86
2023-01-07T23:16:06.389Z,70.98
2023-01-07T23:18:34.968Z,71.10
2023-01-07T23:21:05.259Z,70.86
2023-01-07T23:23:33.213Z,70.86
2023-01-07T23:26:00.865Z,70.27
2023-01-07T23:28:29.037Z,70.01
2023-01-07T23:31:02.167Z,70.21
2023-01-07T23:33:31.994Z,70.47
2023-01-07T23:36:04.355Z,70.36
2023-01-07T23:38:32.637Z,70.70
2023-01-07T23:41:02.530Z,70.79
2023-01-07T23:43:30.683Z,70.49
2023-01-07T23:45:59.227Z,70.61
2023-01-07T23:48:28.092Z,70.48
2023-01-07T23:50:57.815Z,70.79
2023-01-07T23:53:26.380Z,70.46
2023-01-07T23:55:56.008Z,70.35
2023-01-07T23:58:25.900Z,70.23
